sensor_id;sensor_type;location;lat;lon;timestamp;temperature;humidity
2955;DHT22;1487;51.470;6.938;2024-01-07T00:02:20;2.40;99.90
2955;DHT22;1487;51.470;6.938;2024-01-07T00:04:48;2.40;99.90
2955;DHT22;1487;51.470;6.938;2024-01-07T00:07:14;2.40;99.90
2955;DHT22;1487;51.470;6.938;2024-01-07T00:09:41;2.30;99.90
2955;DHT22;1487;51.470;6.938;2024-01-07T00:12:08;2.30;99.90
2955;DHT22;1487;51.470;6.938;2024-01-07T00:14:35;2.30;99.90
2955;DHT22;1487;51.470;6.938;2024-01-07T00:17:02;2.20;99.90
2955;DHT22;1487;51.470;6.938;2024-01-07T00:19:28;2.20;99.90
2955;DHT22;1487;51.470;6.938;2024-01-07T00:21:58;2.20;99.90
2955;DHT22;1487;51.470;6.938;2024-01-07T00:24:24;2.20;99.90
2955;DHT22;1487;51.470;6.938;2024-01-07T00:26:53;2.20;99.90
2955;DHT22;1487;51.470;6.938;2024-01-07T00:29:20;2.20;99.90
2955;DHT22;1487;51.470;6.938;2024-01-07T00:31:47;2.20;99.90
2955;DHT22;1487;51.470;6.938;2024-01-07T00:34:13;2.10;99.90
2955;DHT22;1487;51.470;6.938;2024-01-07T00:36:40;2.10;99.90
2955;DHT22;1487;51.470;6.938;2024-01-07T00:39:08;2.10;99.90
2955;DHT22;1487;51.470;6.938;2024-01-07T00:41:35;2.10;99.90
2955;DHT22;1487;51.470;6.938;2024-01-07T00:44:02;2.10;99.90
2955;DHT22;1487;51.470;6.938;2024-01-07T00:46:28;2.10;99.90
2955;DHT22;1487;51.470;6.938;2024-01-07T00:48:55;2.10;99.90
2955;DHT22;1487;51.470;6.938;2024-01-07T00:51:22;2.00;99.90
2955;DHT22;1487;51.470;6.938;2024-01-07T00:53:48;2.00;99.90
2955;DHT22;1487;51.470;6.938;2024-01-07T00:56:17;2.00;99.90
2955;DHT22;1487;51.470;6.938;2024-01-07T00:58:43;2.00;99.90
2955;DHT22;1487;51.470;6.938;2024-01-07T01:01:10;2.00;99.90
2955;DHT22;1487;51.470;6.938;2024-01-07T01:03:37;2.00;99.90
2955;DHT22;1487;51.470;6.938;2024-01-07T01:06:04;2.00;99.90
2955;DHT22;1487;51.470;6.938;2024-01-07T01:08:31;2.00;99.90
2955;DHT22;1487;51.470;6.938;2024-01-07T01:10:57;2.00;99.90
2955;DHT22;1487;51.470;6.938;2024-01-07T01:13:25;2.00;99.90
2955;DHT22;1487;51.470;6.938;2024-01-07T01:15:52;2.00;99.90
2955;DHT22;1487;51.470;6.938;2024-01-07T01:18:20;2.00;99.90
2955;DHT22;1487;51.470;6.938;2024-01-07T01:20:47;2.00;99.90
2955;DHT22;1487;51.470;6.938;2024-01-07T01:23:14;2.00;99.90
2955;DHT22;1487;51.470;6.938;2024-01-07T01:25:40;2.00;99.90
2955;DHT22;1487;51.470;6.938;2024-01-07T01:28:07;2.00;99.90
2955;DHT22;1487;51.470;6.938;2024-01-07T01:30:35;2.00;99.90
2955;DHT22;1487;51.470;6.938;2024-01-07T01:33:02;2.10;99.90
2955;DHT22;1487;51.470;6.938;2024-01-07T01:35:29;2.10;99.90
2955;DHT22;1487;51.470;6.938;2024-01-07T01:37:56;2.00;99.90
2955;DHT22;1487;51.470;6.938;2024-01-07T01:40:22;2.00;99.90
2955;DHT22;1487;51.470;6.938;2024-01-07T01:42:49;2.00;99.90
2955;DHT22;1487;51.470;6.938;2024-01-07T01:45:16;2.00;99.90
2955;DHT22;1487;51.470;6.938;2024-01-07T01:47:46;2.00;99.90
2955;DHT22;1487;51.470;6.938;2024-01-07T01:50:13;2.00;99.90
2955;DHT22;1487;51.470;6.938;2024-01-07T01:52:41;2.00;99.90
2955;DHT22;1487;51.470;6.938;2024-01-07T01:55:08;2.00;99.90
2955;DHT22;1487;51.470;6.938;2024-01-07T01:57:36;2.00;99.90
2955;DHT22;1487;51.470;6.938;2024-01-07T02:00:06;2.00;99.90
2955;DHT22;1487;51.470;6.938;2024-01-07T02:02:34;2.00;99.90
2955;DHT22;1487;51.470;6.938;2024-01-07T02:05:02;2.00;99.90
2955;DHT22;1487;51.470;6.938;2024-01-07T02:07:30;2.00;99.90
2955;DHT22;1487;51.470;6.938;2024-01-07T02:09:57;2.00;99.90
2955;DHT22;1487;51.470;6.938;2024-01-07T02:12:24;1.90;99.90
2955;DHT22;1487;51.470;6.938;2024-01-07T02:14:50;1.90;99.90
2955;DHT22;1487;51.470;6.938;2024-01-07T02:17:18;1.90;99.90
2955;DHT22;1487;51.470;6.938;2024-01-07T02:19:45;2.00;99.90
2955;DHT22;1487;51.470;6.938;2024-01-07T02:22:13;2.00;99.90
2955;DHT22;1487;51.470;6.938;2024-01-07T02:24:41;1.90;99.90
2955;DHT22;1487;51.470;6.938;2024-01-07T02:27:08;1.90;99.90
2955;DHT22;1487;51.470;6.938;2024-01-07T02:29:35;1.90;99.90
2955;DHT22;1487;51.470;6.938;2024-01-07T02:32:02;1.90;99.90
2955;DHT22;1487;51.470;6.938;2024-01-07T02:34:29;1.80;99.90
2955;DHT22;1487;51.470;6.938;2024-01-07T02:36:55;1.80;99.90
2955;DHT22;1487;51.470;6.938;2024-01-07T02:39:22;1.80;99.90
2955;DHT22;1487;51.470;6.938;2024-01-07T02:41:50;1.80;99.90
2955;DHT22;1487;51.470;6.938;2024-01-07T02:44:17;1.80;99.90
2955;DHT22;1487;51.470;6.938;2024-01-07T02:46:44;1.70;99.90
2955;DHT22;1487;51.470;6.938;2024-01-07T02:49:11;1.80;99.90
2955;DHT22;1487;51.470;6.938;2024-01-07T02:51:38;1.80;99.90
2955;DHT22;1487;51.470;6.938;2024-01-07T02:54:05;1.80;99.90
2955;DHT22;1487;51.470;6.938;2024-01-07T02:56:32;1.80;99.90
2955;DHT22;1487;51.470;6.938;2024-01-07T02:59:00;1.80;99.90
2955;DHT22;1487;51.470;6.938;2024-01-07T03:01:26;1.80;99.90
2955;DHT22;1487;51.470;6.938;2024-01-07T03:03:53;1.80;99.90
2955;DHT22;1487;51.470;6.938;2024-01-07T03:06:20;1.80;99.90
2955;DHT22;1487;51.470;6.938;2024-01-07T03:08:47;1.80;99.90
2955;DHT22;1487;51.470;6.938;2024-01-07T03:11:14;1.70;99.90
2955;DHT22;1487;51.470;6.938;2024-01-07T03:13:41;1.70;99.90
2955;DHT22;1487;51.470;6.938;2024-01-07T03:16:19;1.70;99.90
2955;DHT22;1487;51.470;6.938;2024-01-07T03:18:46;1.60;99.90
2955;DHT22;1487;51.470;6.938;2024-01-07T03:21:17;1.60;99.90
2955;DHT22;1487;51.470;6.938;2024-01-07T03:23:44;1.60;99.90
2955;DHT22;1487;51.470;6.938;2024-01-07T03:26:11;1.60;99.90
2955;DHT22;1487;51.470;6.938;2024-01-07T03:28:37;1.70;99.90
2955;DHT22;1487;51.470;6.938;2024-01-07T03:31:05;1.70;99.90
2955;DHT22;1487;51.470;6.938;2024-01-07T03:33:33;1.70;99.90
2955;DHT22;1487;51.470;6.938;2024-01-07T03:36:00;1.70;99.90
2955;DHT22;1487;51.470;6.938;2024-01-07T03:38:26;1.60;99.90
2955;DHT22;1487;51.470;6.938;2024-01-07T03:40:53;1.60;99.90
2955;DHT22;1487;51.470;6.938;2024-01-07T03:43:20;1.60;99.90
2955;DHT22;1487;51.470;6.938;2024-01-07T03:45:47;1.60;99.90
2955;DHT22;1487;51.470;6.938;2024-01-07T03:48:15;1.60;99.90
2955;DHT22;1487;51.470;6.938;2024-01-07T03:50:43;1.70;99.90
2955;DHT22;1487;51.470;6.938;2024-01-07T03:53:09;1.60;99.90
2955;DHT22;1487;51.470;6.938;2024-01-07T03:55:36;1.60;99.90
2955;DHT22;1487;51.470;6.938;2024-01-07T03:58:03;1.50;99.90
2955;DHT22;1487;51.470;6.938;2024-01-07T04:00:30;1.50;99.90
2955;DHT22;1487;51.470;6.938;2024-01-07T04:02:57;1.50;99.90
2955;DHT22;1487;51.470;6.938;2024-01-07T04:05:24;1.50;99.90
2955;DHT22;1487;51.470;6.938;2024-01-07T04:07:52;1.40;99.90
2955;DHT22;1487;51.470;6.938;2024-01-07T04:10:19;1.40;99.90
2955;DHT22;1487;51.470;6.938;2024-01-07T04:12:45;1.40;99.90
2955;DHT22;1487;51.470;6.938;2024-01-07T04:15:12;1.50;99.90
2955;DHT22;1487;51.470;6.938;2024-01-07T04:17:39;1.50;99.90
2955;DHT22;1487;51.470;6.938;2024-01-07T04:20:07;1.40;99.90
2955;DHT22;1487;51.470;6.938;2024-01-07T04:22:34;1.40;99.90
2955;DHT22;1487;51.470;6.938;2024-01-07T04:25:03;1.40;99.90
2955;DHT22;1487;51.470;6.938;2024-01-07T04:27:30;1.40;99.90
2955;DHT22;1487;51.470;6.938;2024-01-07T04:29:57;1.40;99.90
2955;DHT22;1487;51.470;6.938;2024-01-07T04:32:24;1.40;99.90
2955;DHT22;1487;51.470;6.938;2024-01-07T04:34:51;1.30;99.90
2955;DHT22;1487;51.470;6.938;2024-01-07T04:37:17;1.30;99.90
2955;DHT22;1487;51.470;6.938;2024-01-07T04:39:44;1.20;99.90
2955;DHT22;1487;51.470;6.938;2024-01-07T04:42:12;1.10;99.90
2955;DHT22;1487;51.470;6.938;2024-01-07T04:44:39;1.10;99.90
2955;DHT22;1487;51.470;6.938;2024-01-07T04:47:25;1.10;99.90
2955;DHT22;1487;51.470;6.938;2024-01-07T04:49:52;1.10;99.90
2955;DHT22;1487;51.470;6.938;2024-01-07T04:52:19;1.00;99.90
2955;DHT22;1487;51.470;6.938;2024-01-07T04:54:45;1.00;99.90
2955;DHT22;1487;51.470;6.938;2024-01-07T04:57:13;1.00;99.90
2955;DHT22;1487;51.470;6.938;2024-01-07T04:59:40;1.00;99.90
2955;DHT22;1487;51.470;6.938;2024-01-07T05:02:07;1.10;99.90
2955;DHT22;1487;51.470;6.938;2024-01-07T05:04:35;1.10;99.90
2955;DHT22;1487;51.470;6.938;2024-01-07T05:07:02;1.10;99.90
2955;DHT22;1487;51.470;6.938;2024-01-07T05:09:28;1.10;99.90
2955;DHT22;1487;51.470;6.938;2024-01-07T05:11:55;1.10;99.90
2955;DHT22;1487;51.470;6.938;2024-01-07T05:14:23;1.10;99.90
2955;DHT22;1487;51.470;6.938;2024-01-07T05:16:50;1.10;99.90
2955;DHT22;1487;51.470;6.938;2024-01-07T05:19:18;1.10;99.90
2955;DHT22;1487;51.470;6.938;2024-01-07T05:21:44;1.10;99.90
2955;DHT22;1487;51.470;6.938;2024-01-07T05:24:11;1.10;99.90
2955;DHT22;1487;51.470;6.938;2024-01-07T05:26:38;1.10;99.90
2955;DHT22;1487;51.470;6.938;2024-01-07T05:29:05;1.10;99.90
2955;DHT22;1487;51.470;6.938;2024-01-07T05:31:33;1.10;99.90
2955;DHT22;1487;51.470;6.938;2024-01-07T05:34:00;1.10;99.90
2955;DHT22;1487;51.470;6.938;2024-01-07T05:36:27;1.10;99.90
2955;DHT22;1487;51.470;6.938;2024-01-07T05:38:54;1.10;99.90
2955;DHT22;1487;51.470;6.938;2024-01-07T05:41:21;1.10;99.90
2955;DHT22;1487;51.470;6.938;2024-01-07T05:43:48;1.00;99.90
2955;DHT22;1487;51.470;6.938;2024-01-07T05:46:15;1.00;99.90
2955;DHT22;1487;51.470;6.938;2024-01-07T05:48:44;1.00;99.90
2955;DHT22;1487;51.470;6.938;2024-01-07T05:51:11;1.00;99.90
2955;DHT22;1487;51.470;6.938;2024-01-07T05:53:38;1.00;99.90
2955;DHT22;1487;51.470;6.938;2024-01-07T05:56:04;0.90;99.90
2955;DHT22;1487;51.470;6.938;2024-01-07T05:58:31;1.00;99.90
2955;DHT22;1487;51.470;6.938;2024-01-07T06:00:58;1.00;99.90
2955;DHT22;1487;51.470;6.938;2024-01-07T06:03:25;1.00;99.90
2955;DHT22;1487;51.470;6.938;2024-01-07T06:05:54;1.00;99.90
2955;DHT22;1487;51.470;6.938;2024-01-07T06:08:20;1.00;99.90
2955;DHT22;1487;51.470;6.938;2024-01-07T06:10:47;1.00;99.90
2955;DHT22;1487;51.470;6.938;2024-01-07T06:13:14;1.00;99.90
2955;DHT22;1487;51.470;6.938;2024-01-07T06:15:40;1.00;99.90
2955;DHT22;1487;51.470;6.938;2024-01-07T06:18:07;1.00;99.90
2955;DHT22;1487;51.470;6.938;2024-01-07T06:20:34;1.10;99.90
2955;DHT22;1487;51.470;6.938;2024-01-07T06:23:02;1.10;99.90
2955;DHT22;1487;51.470;6.938;2024-01-07T06:25:29;1.00;99.90
2955;DHT22;1487;51.470;6.938;2024-01-07T06:27:56;1.00;99.90
2955;DHT22;1487;51.470;6.938;2024-01-07T06:30:23;0.90;99.90
2955;DHT22;1487;51.470;6.938;2024-01-07T06:32:50;0.90;99.90
2955;DHT22;1487;51.470;6.938;2024-01-07T06:35:17;1.00;99.90
2955;DHT22;1487;51.470;6.938;2024-01-07T06:37:43;1.00;99.90
2955;DHT22;1487;51.470;6.938;2024-01-07T06:40:12;1.00;99.90
2955;DHT22;1487;51.470;6.938;2024-01-07T06:42:39;1.00;99.90
2955;DHT22;1487;51.470;6.938;2024-01-07T06:45:07;1.00;99.90
2955;DHT22;1487;51.470;6.938;2024-01-07T06:47:34;1.00;99.90
2955;DHT22;1487;51.470;6.938;2024-01-07T06:50:00;1.00;99.90
2955;DHT22;1487;51.470;6.938;2024-01-07T06:52:26;1.00;99.90
2955;DHT22;1487;51.470;6.938;2024-01-07T06:54:53;1.00;99.90
2955;DHT22;1487;51.470;6.938;2024-01-07T06:57:21;1.00;99.90
2955;DHT22;1487;51.470;6.938;2024-01-07T06:59:48;1.00;99.90
2955;DHT22;1487;51.470;6.938;2024-01-07T07:02:14;1.00;99.90
2955;DHT22;1487;51.470;6.938;2024-01-07T07:04:41;1.00;99.90
2955;DHT22;1487;51.470;6.938;2024-01-07T07:07:08;0.90;99.90
2955;DHT22;1487;51.470;6.938;2024-01-07T07:09:35;0.90;99.90
2955;DHT22;1487;51.470;6.938;2024-01-07T07:12:01;1.00;99.90
2955;DHT22;1487;51.470;6.938;2024-01-07T07:14:30;0.90;99.90
2955;DHT22;1487;51.470;6.938;2024-01-07T07:16:57;0.90;99.90
2955;DHT22;1487;51.470;6.938;2024-01-07T07:19:24;0.80;99.90
2955;DHT22;1487;51.470;6.938;2024-01-07T07:21:51;0.80;99.90
2955;DHT22;1487;51.470;6.938;2024-01-07T07:24:17;0.80;99.90
2955;DHT22;1487;51.470;6.938;2024-01-07T07:26:44;0.80;99.90
2955;DHT22;1487;51.470;6.938;2024-01-07T07:29:11;0.80;99.90
2955;DHT22;1487;51.470;6.938;2024-01-07T07:31:39;0.80;99.90
2955;DHT22;1487;51.470;6.938;2024-01-07T07:34:08;0.80;99.90
2955;DHT22;1487;51.470;6.938;2024-01-07T07:36:35;0.80;99.90
2955;DHT22;1487;51.470;6.938;2024-01-07T07:39:02;0.80;99.90
2955;DHT22;1487;51.470;6.938;2024-01-07T07:41:28;0.90;99.90
2955;DHT22;1487;51.470;6.938;2024-01-07T07:43:55;0.90;99.90
2955;DHT22;1487;51.470;6.938;2024-01-07T07:46:22;0.90;99.90
2955;DHT22;1487;51.470;6.938;2024-01-07T07:48:50;0.90;99.90
2955;DHT22;1487;51.470;6.938;2024-01-07T07:51:17;0.90;99.90
2955;DHT22;1487;51.470;6.938;2024-01-07T07:53:43;1.00;99.90
2955;DHT22;1487;51.470;6.938;2024-01-07T07:56:11;0.90;99.90
2955;DHT22;1487;51.470;6.938;2024-01-07T07:58:38;0.90;99.90
2955;DHT22;1487;51.470;6.938;2024-01-07T08:01:05;0.90;99.90
2955;DHT22;1487;51.470;6.938;2024-01-07T08:03:32;0.90;99.90
2955;DHT22;1487;51.470;6.938;2024-01-07T08:06:00;0.90;99.90
2955;DHT22;1487;51.470;6.938;2024-01-07T08:08:27;0.90;99.90
2955;DHT22;1487;51.470;6.938;2024-01-07T08:10:53;0.80;99.90
2955;DHT22;1487;51.470;6.938;2024-01-07T08:13:20;0.80;99.90
2955;DHT22;1487;51.470;6.938;2024-01-07T08:15:47;0.70;99.90
2955;DHT22;1487;51.470;6.938;2024-01-07T08:18:14;0.70;99.90
2955;DHT22;1487;51.470;6.938;2024-01-07T08:20:41;0.60;99.90
2955;DHT22;1487;51.470;6.938;2024-01-07T08:23:09;0.60;99.90
2955;DHT22;1487;51.470;6.938;2024-01-07T08:25:35;0.60;99.90
2955;DHT22;1487;51.470;6.938;2024-01-07T08:28:02;0.50;99.90
2955;DHT22;1487;51.470;6.938;2024-01-07T08:30:29;0.60;99.90
2955;DHT22;1487;51.470;6.938;2024-01-07T08:32:56;0.60;99.90
2955;DHT22;1487;51.470;6.938;2024-01-07T08:35:23;0.50;99.90
2955;DHT22;1487;51.470;6.938;2024-01-07T08:37:49;0.60;99.90
2955;DHT22;1487;51.470;6.938;2024-01-07T08:40:17;0.60;99.90
2955;DHT22;1487;51.470;6.938;2024-01-07T08:42:44;0.50;99.90
2955;DHT22;1487;51.470;6.938;2024-01-07T08:45:11;0.50;99.90
2955;DHT22;1487;51.470;6.938;2024-01-07T08:47:38;0.50;99.90
2955;DHT22;1487;51.470;6.938;2024-01-07T08:50:05;0.50;99.90
2955;DHT22;1487;51.470;6.938;2024-01-07T08:52:32;0.50;99.90
2955;DHT22;1487;51.470;6.938;2024-01-07T08:55:00;0.50;99.90
2955;DHT22;1487;51.470;6.938;2024-01-07T08:57:28;0.50;99.90
2955;DHT22;1487;51.470;6.938;2024-01-07T08:59:55;0.60;99.90
2955;DHT22;1487;51.470;6.938;2024-01-07T09:02:22;0.60;99.90
2955;DHT22;1487;51.470;6.938;2024-01-07T09:04:49;0.60;99.90
2955;DHT22;1487;51.470;6.938;2024-01-07T09:07:15;0.60;99.90
2955;DHT22;1487;51.470;6.938;2024-01-07T09:09:42;0.60;99.90
2955;DHT22;1487;51.470;6.938;2024-01-07T09:12:09;0.60;99.90
2955;DHT22;1487;51.470;6.938;2024-01-07T09:14:38;0.70;99.90
2955;DHT22;1487;51.470;6.938;2024-01-07T09:17:05;0.60;99.90
2955;DHT22;1487;51.470;6.938;2024-01-07T09:19:32;0.60;99.90
2955;DHT22;1487;51.470;6.938;2024-01-07T09:21:59;0.60;99.90
2955;DHT22;1487;51.470;6.938;2024-01-07T09:24:25;0.60;99.90
2955;DHT22;1487;51.470;6.938;2024-01-07T09:26:52;0.60;99.90
2955;DHT22;1487;51.470;6.938;2024-01-07T09:29:19;0.60;99.90
2955;DHT22;1487;51.470;6.938;2024-01-07T09:31:47;0.60;99.90
2955;DHT22;1487;51.470;6.938;2024-01-07T09:34:14;0.60;99.90
2955;DHT22;1487;51.470;6.938;2024-01-07T09:36:41;0.60;99.90
2955;DHT22;1487;51.470;6.938;2024-01-07T09:39:08;0.60;99.90
2955;DHT22;1487;51.470;6.938;2024-01-07T09:41:35;0.60;99.90
2955;DHT22;1487;51.470;6.938;2024-01-07T09:44:02;0.60;99.90
2955;DHT22;1487;51.470;6.938;2024-01-07T09:46:38;0.60;99.90
2955;DHT22;1487;51.470;6.938;2024-01-07T09:49:21;0.60;99.90
2955;DHT22;1487;51.470;6.938;2024-01-07T09:51:49;0.70;99.90
2955;DHT22;1487;51.470;6.938;2024-01-07T09:54:17;0.80;99.90
2955;DHT22;1487;51.470;6.938;2024-01-07T09:56:50;0.80;99.90
2955;DHT22;1487;51.470;6.938;2024-01-07T09:59:19;0.80;99.90
2955;DHT22;1487;51.470;6.938;2024-01-07T10:01:47;0.80;99.90
2955;DHT22;1487;51.470;6.938;2024-01-07T10:04:14;0.90;99.90
2955;DHT22;1487;51.470;6.938;2024-01-07T10:06:42;0.80;99.90
2955;DHT22;1487;51.470;6.938;2024-01-07T10:09:08;0.90;99.90
2955;DHT22;1487;51.470;6.938;2024-01-07T10:11:37;0.80;99.90
2955;DHT22;1487;51.470;6.938;2024-01-07T10:14:06;0.90;99.90
2955;DHT22;1487;51.470;6.938;2024-01-07T10:16:32;0.90;99.90
2955;DHT22;1487;51.470;6.938;2024-01-07T10:19:00;1.00;99.90
2955;DHT22;1487;51.470;6.938;2024-01-07T10:21:26;1.00;99.90
2955;DHT22;1487;51.470;6.938;2024-01-07T10:24:07;1.00;99.90
2955;DHT22;1487;51.470;6.938;2024-01-07T10:26:34;1.00;99.90
2955;DHT22;1487;51.470;6.938;2024-01-07T10:29:01;1.00;99.90
2955;DHT22;1487;51.470;6.938;2024-01-07T10:31:28;1.00;99.90
2955;DHT22;1487;51.470;6.938;2024-01-07T10:33:55;1.00;99.90
2955;DHT22;1487;51.470;6.938;2024-01-07T10:36:22;0.80;99.90
2955;DHT22;1487;51.470;6.938;2024-01-07T10:38:50;0.80;99.90
2955;DHT22;1487;51.470;6.938;2024-01-07T10:41:19;0.70;99.90
2955;DHT22;1487;51.470;6.938;2024-01-07T10:43:48;0.70;99.90
2955;DHT22;1487;51.470;6.938;2024-01-07T10:46:16;0.70;99.90
2955;DHT22;1487;51.470;6.938;2024-01-07T10:48:51;0.70;99.90
2955;DHT22;1487;51.470;6.938;2024-01-07T10:51:20;0.80;99.90
2955;DHT22;1487;51.470;6.938;2024-01-07T10:53:52;0.80;99.90
2955;DHT22;1487;51.470;6.938;2024-01-07T10:56:22;0.70;99.90
2955;DHT22;1487;51.470;6.938;2024-01-07T10:58:51;0.70;99.90
2955;DHT22;1487;51.470;6.938;2024-01-07T11:01:19;0.70;99.90
2955;DHT22;1487;51.470;6.938;2024-01-07T11:03:54;0.80;99.90
2955;DHT22;1487;51.470;6.938;2024-01-07T11:06:27;0.70;99.90
2955;DHT22;1487;51.470;6.938;2024-01-07T11:08:59;0.70;99.90
2955;DHT22;1487;51.470;6.938;2024-01-07T11:11:36;0.70;99.90
2955;DHT22;1487;51.470;6.938;2024-01-07T11:14:37;0.60;99.90
2955;DHT22;1487;51.470;6.938;2024-01-07T11:17:05;0.50;99.90
2955;DHT22;1487;51.470;6.938;2024-01-07T11:19:31;0.60;99.90
2955;DHT22;1487;51.470;6.938;2024-01-07T11:22:21;0.60;99.90
2955;DHT22;1487;51.470;6.938;2024-01-07T11:24:48;0.50;99.90
2955;DHT22;1487;51.470;6.938;2024-01-07T11:27:17;0.50;99.90
2955;DHT22;1487;51.470;6.938;2024-01-07T11:29:44;0.60;99.90
2955;DHT22;1487;51.470;6.938;2024-01-07T11:32:12;0.60;99.90
2955;DHT22;1487;51.470;6.938;2024-01-07T11:34:40;0.60;99.90
2955;DHT22;1487;51.470;6.938;2024-01-07T11:37:10;0.60;99.90
2955;DHT22;1487;51.470;6.938;2024-01-07T11:39:38;0.50;99.90
2955;DHT22;1487;51.470;6.938;2024-01-07T11:42:04;0.40;99.90
2955;DHT22;1487;51.470;6.938;2024-01-07T11:44:35;0.50;99.90
2955;DHT22;1487;51.470;6.938;2024-01-07T11:47:03;0.50;99.90
2955;DHT22;1487;51.470;6.938;2024-01-07T11:49:30;0.50;99.90
2955;DHT22;1487;51.470;6.938;2024-01-07T11:51:56;0.50;99.90
2955;DHT22;1487;51.470;6.938;2024-01-07T11:54:23;0.40;99.90
2955;DHT22;1487;51.470;6.938;2024-01-07T11:56:50;0.50;99.90
2955;DHT22;1487;51.470;6.938;2024-01-07T11:59:17;0.50;99.90
2955;DHT22;1487;51.470;6.938;2024-01-07T12:01:45;0.60;99.90
2955;DHT22;1487;51.470;6.938;2024-01-07T12:04:12;0.60;99.90
2955;DHT22;1487;51.470;6.938;2024-01-07T12:06:39;0.50;99.90
2955;DHT22;1487;51.470;6.938;2024-01-07T12:09:05;0.50;99.90
2955;DHT22;1487;51.470;6.938;2024-01-07T12:11:32;0.50;99.90
2955;DHT22;1487;51.470;6.938;2024-01-07T12:13:59;0.40;99.90
2955;DHT22;1487;51.470;6.938;2024-01-07T12:16:26;0.40;99.90
2955;DHT22;1487;51.470;6.938;2024-01-07T12:18:55;0.50;99.90
2955;DHT22;1487;51.470;6.938;2024-01-07T12:21:21;0.40;99.90
2955;DHT22;1487;51.470;6.938;2024-01-07T12:23:49;0.40;99.90
2955;DHT22;1487;51.470;6.938;2024-01-07T12:26:17;0.30;99.90
2955;DHT22;1487;51.470;6.938;2024-01-07T12:28:52;0.20;99.90
2955;DHT22;1487;51.470;6.938;2024-01-07T12:31:19;0.20;99.90
2955;DHT22;1487;51.470;6.938;2024-01-07T12:33:46;0.20;99.90
2955;DHT22;1487;51.470;6.938;2024-01-07T12:36:14;0.20;99.90
2955;DHT22;1487;51.470;6.938;2024-01-07T12:38:41;0.20;99.90
2955;DHT22;1487;51.470;6.938;2024-01-07T12:41:09;0.10;99.90
2955;DHT22;1487;51.470;6.938;2024-01-07T12:43:36;0.00;99.90
2955;DHT22;1487;51.470;6.938;2024-01-07T12:46:03;0.00;99.90
2955;DHT22;1487;51.470;6.938;2024-01-07T12:48:31;0.10;99.90
2955;DHT22;1487;51.470;6.938;2024-01-07T12:50:57;0.10;99.90
2955;DHT22;1487;51.470;6.938;2024-01-07T12:53:25;0.10;99.90
2955;DHT22;1487;51.470;6.938;2024-01-07T12:55:53;0.10;99.90
2955;DHT22;1487;51.470;6.938;2024-01-07T12:58:20;0.20;99.90
2955;DHT22;1487;51.470;6.938;2024-01-07T13:00:47;0.20;99.90
2955;DHT22;1487;51.470;6.938;2024-01-07T13:03:14;0.30;99.90
2955;DHT22;1487;51.470;6.938;2024-01-07T13:05:44;0.30;99.90
2955;DHT22;1487;51.470;6.938;2024-01-07T13:08:11;0.20;99.90
2955;DHT22;1487;51.470;6.938;2024-01-07T13:10:39;0.20;99.90
2955;DHT22;1487;51.470;6.938;2024-01-07T13:13:06;0.20;99.90
2955;DHT22;1487;51.470;6.938;2024-01-07T13:15:35;0.10;99.90
2955;DHT22;1487;51.470;6.938;2024-01-07T13:18:02;0.20;99.90
2955;DHT22;1487;51.470;6.938;2024-01-07T13:20:29;0.10;99.90
2955;DHT22;1487;51.470;6.938;2024-01-07T13:22:55;0.10;99.90
2955;DHT22;1487;51.470;6.938;2024-01-07T13:25:22;0.10;99.90
2955;DHT22;1487;51.470;6.938;2024-01-07T13:27:50;0.10;99.90
2955;DHT22;1487;51.470;6.938;2024-01-07T13:30:18;0.20;99.90
2955;DHT22;1487;51.470;6.938;2024-01-07T13:32:44;0.20;99.90
2955;DHT22;1487;51.470;6.938;2024-01-07T13:35:11;0.20;99.90
2955;DHT22;1487;51.470;6.938;2024-01-07T13:37:38;0.20;99.90
2955;DHT22;1487;51.470;6.938;2024-01-07T13:40:08;0.20;99.90
2955;DHT22;1487;51.470;6.938;2024-01-07T13:42:36;0.10;99.90
2955;DHT22;1487;51.470;6.938;2024-01-07T13:45:05;0.00;99.90
2955;DHT22;1487;51.470;6.938;2024-01-07T13:47:32;0.10;99.90
2955;DHT22;1487;51.470;6.938;2024-01-07T13:50:01;0.10;99.90
2955;DHT22;1487;51.470;6.938;2024-01-07T13:52:29;0.10;99.90
2955;DHT22;1487;51.470;6.938;2024-01-07T13:54:56;0.10;99.90
2955;DHT22;1487;51.470;6.938;2024-01-07T13:57:22;0.10;99.90
2955;DHT22;1487;51.470;6.938;2024-01-07T13:59:49;0.10;99.90
2955;DHT22;1487;51.470;6.938;2024-01-07T14:02:17;0.20;99.90
2955;DHT22;1487;51.470;6.938;2024-01-07T14:04:45;0.10;99.90
2955;DHT22;1487;51.470;6.938;2024-01-07T14:07:11;0.20;99.90
2955;DHT22;1487;51.470;6.938;2024-01-07T14:09:38;0.30;99.90
2955;DHT22;1487;51.470;6.938;2024-01-07T14:12:05;0.40;99.90
2955;DHT22;1487;51.470;6.938;2024-01-07T14:14:32;0.50;99.90
2955;DHT22;1487;51.470;6.938;2024-01-07T14:16:59;0.50;99.90
2955;DHT22;1487;51.470;6.938;2024-01-07T14:19:27;0.40;99.90
2955;DHT22;1487;51.470;6.938;2024-01-07T14:21:54;0.50;99.90
2955;DHT22;1487;51.470;6.938;2024-01-07T14:24:21;0.50;99.90
2955;DHT22;1487;51.470;6.938;2024-01-07T14:26:48;0.50;99.90
2955;DHT22;1487;51.470;6.938;2024-01-07T14:29:15;0.60;99.90
2955;DHT22;1487;51.470;6.938;2024-01-07T14:31:41;0.50;99.90
2955;DHT22;1487;51.470;6.938;2024-01-07T14:34:08;0.50;99.90
2955;DHT22;1487;51.470;6.938;2024-01-07T14:36:39;0.50;99.90
2955;DHT22;1487;51.470;6.938;2024-01-07T14:39:06;0.40;99.90
2955;DHT22;1487;51.470;6.938;2024-01-07T14:41:34;0.50;99.90
2955;DHT22;1487;51.470;6.938;2024-01-07T14:44:01;0.40;99.90
2955;DHT22;1487;51.470;6.938;2024-01-07T14:46:28;0.40;99.90
2955;DHT22;1487;51.470;6.938;2024-01-07T14:48:55;0.40;99.90
2955;DHT22;1487;51.470;6.938;2024-01-07T14:51:22;0.40;99.90
2955;DHT22;1487;51.470;6.938;2024-01-07T14:53:50;0.40;99.90
2955;DHT22;1487;51.470;6.938;2024-01-07T14:56:17;0.50;99.90
2955;DHT22;1487;51.470;6.938;2024-01-07T14:58:44;0.50;99.90
2955;DHT22;1487;51.470;6.938;2024-01-07T15:01:13;0.40;99.90
2955;DHT22;1487;51.470;6.938;2024-01-07T15:03:39;0.40;99.90
2955;DHT22;1487;51.470;6.938;2024-01-07T15:06:06;0.40;99.90
2955;DHT22;1487;51.470;6.938;2024-01-07T15:08:34;0.30;99.90
2955;DHT22;1487;51.470;6.938;2024-01-07T15:11:03;0.30;99.90
2955;DHT22;1487;51.470;6.938;2024-01-07T15:13:30;0.30;99.90
2955;DHT22;1487;51.470;6.938;2024-01-07T15:15:56;0.30;99.90
2955;DHT22;1487;51.470;6.938;2024-01-07T15:18:23;0.30;99.90
2955;DHT22;1487;51.470;6.938;2024-01-07T15:20:50;0.20;99.90
2955;DHT22;1487;51.470;6.938;2024-01-07T15:23:17;0.30;99.90
2955;DHT22;1487;51.470;6.938;2024-01-07T15:25:44;0.30;99.90
2955;DHT22;1487;51.470;6.938;2024-01-07T15:28:12;0.30;99.90
2955;DHT22;1487;51.470;6.938;2024-01-07T15:30:39;0.30;99.90
2955;DHT22;1487;51.470;6.938;2024-01-07T15:33:06;0.30;99.90
2955;DHT22;1487;51.470;6.938;2024-01-07T15:35:33;0.40;99.90
2955;DHT22;1487;51.470;6.938;2024-01-07T15:37:59;0.30;99.90
2955;DHT22;1487;51.470;6.938;2024-01-07T15:40:26;0.40;99.90
2955;DHT22;1487;51.470;6.938;2024-01-07T15:42:53;0.30;99.90
2955;DHT22;1487;51.470;6.938;2024-01-07T15:45:21;0.30;99.90
2955;DHT22;1487;51.470;6.938;2024-01-07T15:47:48;0.40;99.90
2955;DHT22;1487;51.470;6.938;2024-01-07T15:50:15;0.30;99.90
2955;DHT22;1487;51.470;6.938;2024-01-07T15:52:42;0.30;99.90
2955;DHT22;1487;51.470;6.938;2024-01-07T15:55:12;0.30;99.90
2955;DHT22;1487;51.470;6.938;2024-01-07T15:57:38;0.40;99.90
2955;DHT22;1487;51.470;6.938;2024-01-07T16:00:05;0.30;99.90
2955;DHT22;1487;51.470;6.938;2024-01-07T16:02:34;0.30;99.90
2955;DHT22;1487;51.470;6.938;2024-01-07T16:05:01;0.30;99.90
2955;DHT22;1487;51.470;6.938;2024-01-07T16:07:27;0.30;99.90
2955;DHT22;1487;51.470;6.938;2024-01-07T16:09:55;0.30;99.90
2955;DHT22;1487;51.470;6.938;2024-01-07T16:12:21;0.20;99.90
2955;DHT22;1487;51.470;6.938;2024-01-07T16:14:48;0.30;99.90
2955;DHT22;1487;51.470;6.938;2024-01-07T16:17:15;0.30;99.90
2955;DHT22;1487;51.470;6.938;2024-01-07T16:19:43;0.20;99.90